Flag for Spain

Past Weather in 41°19'49.7"N, 2°05'35.3"E, Spain — Yesterday and Last 2 Weeks

Currently: 54 °F. Passing clouds. (Weather station: Barcelona Airport, Spain). See more current weather

Past Weather in 41°19'49.7"N, 2°05'35.3"E — Graph

°F

41°19'49.7"N, 2°05'35.3"E Temperature Yesterday

Maximum temperature yesterday: 59 °F (at 12:30 pm)
Minimum temperature yesterday: 46 °F (at 11:00 pm)
Average temperature yesterday: 54 °F

High & Low Weather Summary for the Past Weeks

 TemperatureHumidityPressure
High70 °F (Apr 3, 1:00 pm)100% (Apr 10, 11:30 pm)30.30 "Hg (Apr 10, 11:30 pm)
Low45 °F (Apr 17, 8:00 am)31% (Apr 17, 12:30 pm)29.80 "Hg (Apr 3, 4:00 pm)
Average55 °F70%30.06 "Hg
* Reported Apr 2 7:00 pm — Apr 17 7:30 pm, 41°19'49.7"N, 2°05'35.3"E. Weather by CustomWeather, © 2021

Note: Actual official high and low records may vary slightly from our data, if they occured in-between our weather recording intervals... More about our weather records

41°19'49.7"N, 2°05'35.3"E Weather History for the Previous 24 Hours

Scroll right to see more
 ConditionsComfort  
Time TempWeatherWind HumidityBarometerVisibility
7:30 pm
Sat, Apr 17
54 °FPassing clouds.7 mph58%30.04 "HgN/A
7:00 pm55 °FPassing clouds.9 mph51%30.01 "HgN/A
6:30 pm55 °FPassing clouds.10 mph55%30.01 "HgN/A
6:00 pm55 °FPassing clouds.15 mph51%30.01 "HgN/A
5:30 pm55 °FScattered clouds.14 mph51%30.01 "HgN/A
5:00 pm55 °FScattered clouds.13 mph55%30.01 "HgN/A
4:30 pm57 °FScattered clouds.14 mph55%30.01 "HgN/A
4:00 pm57 °FPassing clouds.7 mph51%30.01 "HgN/A
3:30 pm57 °FPassing clouds.8 mph55%30.01 "HgN/A
3:00 pm57 °FPassing clouds.8 mph48%30.01 "HgN/A
2:30 pm57 °FPassing clouds.9 mph48%29.98 "HgN/A
2:00 pm57 °FPassing clouds.10 mph44%30.01 "HgN/A
1:30 pm57 °FPassing clouds.10 mph48%30.01 "HgN/A
1:00 pm57 °FPassing clouds.6 mph44%30.01 "HgN/A
12:30 pm57 °FPassing clouds.5 mph31%30.01 "HgN/A
12:00 pm57 °FPassing clouds.9 mph39%30.04 "HgN/A
11:30 am55 °FPassing clouds.6 mph55%30.04 "HgN/A
11:00 am54 °FPassing clouds.9 mph58%30.04 "HgN/A
10:30 am54 °FPassing clouds.12 mph63%30.04 "HgN/A
10:00 am50 °FPassing clouds.9 mph71%30.04 "HgN/A
9:30 am48 °FPassing clouds.7 mph76%30.04 "HgN/A
9:00 am46 °FPassing clouds.8 mph82%30.04 "HgN/A
8:30 am45 °FPassing clouds.9 mph81%30.04 "HgN/A
8:00 am45 °FPassing clouds.9 mph81%30.04 "HgN/A
7:30 am46 °FPassing clouds.6 mph76%30.04 "HgN/A
7:00 am46 °FPassing clouds.7 mph76%30.04 "HgN/A
6:30 am46 °FPassing clouds.12 mph82%30.04 "HgN/A
6:00 am46 °FPassing clouds.10 mph82%30.04 "HgN/A
5:30 am46 °FPassing clouds.9 mph82%30.04 "HgN/A
5:00 am46 °FPassing clouds.10 mph82%30.04 "HgN/A
4:30 am46 °FPassing clouds.8 mph82%30.07 "HgN/A
4:00 am46 °FPassing clouds.8 mph87%30.07 "HgN/A
3:30 am46 °FPassing clouds.7 mph82%30.07 "HgN/A
3:00 am46 °FPassing clouds.9 mph87%30.07 "HgN/A
2:30 am46 °FPassing clouds.8 mph87%30.09 "HgN/A
2:00 am46 °FPassing clouds.10 mph82%30.09 "HgN/A
1:30 am46 °FPassing clouds.10 mph87%30.09 "HgN/A
1:00 am46 °FPassing clouds.10 mph87%30.12 "HgN/A
12:30 am46 °FPassing clouds.3 mph87%30.12 "HgN/A
12:00 am46 °FPassing clouds.7 mph93%30.12 "HgN/A
11:30 pm
Fri, Apr 16
46 °FPassing clouds.10 mph87%30.12 "HgN/A
11:00 pm46 °FPassing clouds.9 mph87%30.12 "HgN/A
10:30 pm48 °FLight rain. Passing clouds.12 mph82%30.12 "HgN/A
10:00 pm48 °FLight rain. Passing clouds.14 mph82%30.12 "HgN/A
9:30 pm50 °FPassing clouds.16 mph76%30.09 "HgN/A
9:00 pm52 °FPassing clouds.14 mph62%30.07 "HgN/A
8:30 pm54 °FScattered clouds.14 mph54%30.07 "HgN/A
8:00 pm55 °FScattered clouds.13 mph51%30.04 "HgN/A
Weather by CustomWeather, © 2021

See weather overview